sensor_id;sensor_type;location;lat;lon;timestamp;P1;durP1;ratioP1;P2;durP2;ratioP2
64029;SDS011;50277;52.064;4.492;2022-11-06T00:00:16;11.18;;;4.85;;
64029;SDS011;50277;52.064;4.492;2022-11-06T00:02:42;7.30;;;3.78;;
64029;SDS011;50277;52.064;4.492;2022-11-06T00:05:07;10.07;;;4.22;;
64029;SDS011;50277;52.064;4.492;2022-11-06T00:07:52;10.32;;;4.38;;
64029;SDS011;50277;52.064;4.492;2022-11-06T00:10:17;10.27;;;4.10;;
64029;SDS011;50277;52.064;4.492;2022-11-06T00:12:43;11.52;;;3.90;;
64029;SDS011;50277;52.064;4.492;2022-11-06T00:15:08;12.57;;;4.43;;
64029;SDS011;50277;52.064;4.492;2022-11-06T00:17:34;9.93;;;4.07;;
64029;SDS011;50277;52.064;4.492;2022-11-06T00:20:00;11.05;;;4.93;;
64029;SDS011;50277;52.064;4.492;2022-11-06T00:22:25;5.75;;;3.65;;
64029;SDS011;50277;52.064;4.492;2022-11-06T00:24:51;9.02;;;4.00;;
64029;SDS011;50277;52.064;4.492;2022-11-06T00:27:16;10.82;;;4.03;;
64029;SDS011;50277;52.064;4.492;2022-11-06T00:29:42;10.38;;;3.90;;
64029;SDS011;50277;52.064;4.492;2022-11-06T00:32:07;12.35;;;4.40;;
64029;SDS011;50277;52.064;4.492;2022-11-06T00:34:33;9.57;;;4.28;;
64029;SDS011;50277;52.064;4.492;2022-11-06T00:36:58;9.20;;;4.30;;
64029;SDS011;50277;52.064;4.492;2022-11-06T00:39:24;5.20;;;3.72;;
64029;SDS011;50277;52.064;4.492;2022-11-06T00:41:49;9.88;;;4.28;;
64029;SDS011;50277;52.064;4.492;2022-11-06T00:44:14;9.15;;;3.75;;
64029;SDS011;50277;52.064;4.492;2022-11-06T00:46:40;7.63;;;3.90;;
64029;SDS011;50277;52.064;4.492;2022-11-06T00:49:05;9.10;;;4.00;;
64029;SDS011;50277;52.064;4.492;2022-11-06T00:51:31;9.95;;;4.55;;
64029;SDS011;50277;52.064;4.492;2022-11-06T00:54:01;10.07;;;4.53;;
64029;SDS011;50277;52.064;4.492;2022-11-06T00:56:28;12.65;;;4.00;;
64029;SDS011;50277;52.064;4.492;2022-11-06T00:58:54;9.77;;;4.07;;
64029;SDS011;50277;52.064;4.492;2022-11-06T01:01:21;10.80;;;4.07;;
64029;SDS011;50277;52.064;4.492;2022-11-06T01:03:55;15.88;;;5.55;;
64029;SDS011;50277;52.064;4.492;2022-11-06T01:06:26;12.10;;;4.85;;
64029;SDS011;50277;52.064;4.492;2022-11-06T01:08:53;13.73;;;4.30;;
64029;SDS011;50277;52.064;4.492;2022-11-06T01:11:22;12.07;;;4.57;;
64029;SDS011;50277;52.064;4.492;2022-11-06T01:13:50;7.82;;;4.47;;
64029;SDS011;50277;52.064;4.492;2022-11-06T01:16:16;15.88;;;4.13;;
64029;SDS011;50277;52.064;4.492;2022-11-06T01:18:42;12.10;;;4.70;;
64029;SDS011;50277;52.064;4.492;2022-11-06T01:21:09;8.73;;;4.65;;
64029;SDS011;50277;52.064;4.492;2022-11-06T01:23:40;7.95;;;4.07;;
64029;SDS011;50277;52.064;4.492;2022-11-06T01:26:06;10.73;;;4.35;;
64029;SDS011;50277;52.064;4.492;2022-11-06T01:28:33;9.90;;;4.35;;
64029;SDS011;50277;52.064;4.492;2022-11-06T01:31:02;10.93;;;4.85;;
64029;SDS011;50277;52.064;4.492;2022-11-06T01:33:29;14.88;;;5.30;;
64029;SDS011;50277;52.064;4.492;2022-11-06T01:35:54;13.80;;;4.82;;
64029;SDS011;50277;52.064;4.492;2022-11-06T01:38:20;12.23;;;4.50;;
64029;SDS011;50277;52.064;4.492;2022-11-06T01:40:46;11.45;;;4.75;;
64029;SDS011;50277;52.064;4.492;2022-11-06T01:43:58;12.45;;;5.40;;
64029;SDS011;50277;52.064;4.492;2022-11-06T01:46:12;17.15;;;4.95;;
64029;SDS011;50277;52.064;4.492;2022-11-06T01:48:38;12.60;;;4.75;;
64029;SDS011;50277;52.064;4.492;2022-11-06T01:51:04;9.77;;;4.55;;
64029;SDS011;50277;52.064;4.492;2022-11-06T01:53:30;15.15;;;5.10;;
64029;SDS011;50277;52.064;4.492;2022-11-06T01:55:58;13.25;;;5.25;;
64029;SDS011;50277;52.064;4.492;2022-11-06T01:58:26;5.55;;;3.97;;
64029;SDS011;50277;52.064;4.492;2022-11-06T02:00:52;10.70;;;4.78;;
64029;SDS011;50277;52.064;4.492;2022-11-06T02:03:18;13.52;;;4.57;;
64029;SDS011;50277;52.064;4.492;2022-11-06T02:05:43;9.25;;;4.07;;
64029;SDS011;50277;52.064;4.492;2022-11-06T02:08:10;14.13;;;4.32;;
64029;SDS011;50277;52.064;4.492;2022-11-06T02:10:38;9.18;;;4.43;;
64029;SDS011;50277;52.064;4.492;2022-11-06T02:31:59;12.05;;;4.82;;
64029;SDS011;50277;52.064;4.492;2022-11-06T02:34:30;15.88;;;5.65;;
64029;SDS011;50277;52.064;4.492;2022-11-06T02:37:00;14.60;;;5.63;;
64029;SDS011;50277;52.064;4.492;2022-11-06T02:39:39;17.25;;;5.50;;
64029;SDS011;50277;52.064;4.492;2022-11-06T02:42:06;12.30;;;5.03;;
64029;SDS011;50277;52.064;4.492;2022-11-06T02:44:32;11.43;;;5.25;;
64029;SDS011;50277;52.064;4.492;2022-11-06T02:47:01;15.20;;;6.13;;
64029;SDS011;50277;52.064;4.492;2022-11-06T02:52:05;15.25;;;6.47;;
64029;SDS011;50277;52.064;4.492;2022-11-06T02:54:34;17.30;;;6.18;;
64029;SDS011;50277;52.064;4.492;2022-11-06T02:57:03;13.82;;;6.20;;
64029;SDS011;50277;52.064;4.492;2022-11-06T03:02:04;18.60;;;6.40;;
64029;SDS011;50277;52.064;4.492;2022-11-06T03:04:39;14.02;;;7.03;;
64029;SDS011;50277;52.064;4.492;2022-11-06T03:07:33;14.70;;;6.53;;
64029;SDS011;50277;52.064;4.492;2022-11-06T03:10:06;14.80;;;6.45;;
64029;SDS011;50277;52.064;4.492;2022-11-06T03:12:34;13.68;;;6.85;;
64029;SDS011;50277;52.064;4.492;2022-11-06T03:17:49;17.33;;;6.55;;
64029;SDS011;50277;52.064;4.492;2022-11-06T03:20:40;14.23;;;7.40;;
64029;SDS011;50277;52.064;4.492;2022-11-06T03:30:48;17.25;;;7.47;;
64029;SDS011;50277;52.064;4.492;2022-11-06T03:33:17;14.75;;;7.00;;
64029;SDS011;50277;52.064;4.492;2022-11-06T03:35:53;17.63;;;7.47;;
64029;SDS011;50277;52.064;4.492;2022-11-06T03:40:54;18.45;;;7.32;;
64029;SDS011;50277;52.064;4.492;2022-11-06T03:43:24;18.77;;;7.85;;
64029;SDS011;50277;52.064;4.492;2022-11-06T03:45:51;15.18;;;7.68;;
64029;SDS011;50277;52.064;4.492;2022-11-06T03:48:19;16.08;;;8.32;;
64029;SDS011;50277;52.064;4.492;2022-11-06T03:53:22;21.38;;;8.15;;
64029;SDS011;50277;52.064;4.492;2022-11-06T03:55:53;15.60;;;8.10;;
64029;SDS011;50277;52.064;4.492;2022-11-06T03:58:22;16.52;;;7.57;;
64029;SDS011;50277;52.064;4.492;2022-11-06T04:00:48;14.80;;;8.10;;
64029;SDS011;50277;52.064;4.492;2022-11-06T04:03:17;14.88;;;7.70;;
64029;SDS011;50277;52.064;4.492;2022-11-06T04:05:52;12.85;;;7.68;;
64029;SDS011;50277;52.064;4.492;2022-11-06T04:08:22;16.75;;;7.75;;
64029;SDS011;50277;52.064;4.492;2022-11-06T04:11:07;14.20;;;7.30;;
64029;SDS011;50277;52.064;4.492;2022-11-06T04:13:52;19.25;;;7.60;;
64029;SDS011;50277;52.064;4.492;2022-11-06T04:18:46;10.77;;;6.30;;
64029;SDS011;50277;52.064;4.492;2022-11-06T04:24:01;17.25;;;7.25;;
64029;SDS011;50277;52.064;4.492;2022-11-06T04:27:15;17.40;;;6.35;;
64029;SDS011;50277;52.064;4.492;2022-11-06T04:47:50;18.13;;;6.88;;
64029;SDS011;50277;52.064;4.492;2022-11-06T04:50:17;13.70;;;5.85;;
64029;SDS011;50277;52.064;4.492;2022-11-06T04:52:43;15.38;;;6.13;;
64029;SDS011;50277;52.064;4.492;2022-11-06T04:55:09;10.52;;;5.32;;
64029;SDS011;50277;52.064;4.492;2022-11-06T04:57:34;11.73;;;4.93;;
64029;SDS011;50277;52.064;4.492;2022-11-06T05:00:00;12.95;;;5.82;;
64029;SDS011;50277;52.064;4.492;2022-11-06T05:02:25;15.25;;;6.15;;
64029;SDS011;50277;52.064;4.492;2022-11-06T05:04:50;14.77;;;5.30;;
64029;SDS011;50277;52.064;4.492;2022-11-06T05:07:16;13.15;;;5.10;;
64029;SDS011;50277;52.064;4.492;2022-11-06T05:09:41;16.58;;;4.47;;
64029;SDS011;50277;52.064;4.492;2022-11-06T05:12:07;8.77;;;4.38;;
64029;SDS011;50277;52.064;4.492;2022-11-06T05:14:32;10.77;;;5.45;;
64029;SDS011;50277;52.064;4.492;2022-11-06T05:16:57;10.63;;;4.25;;
64029;SDS011;50277;52.064;4.492;2022-11-06T05:19:23;13.60;;;4.50;;
64029;SDS011;50277;52.064;4.492;2022-11-06T05:21:48;13.48;;;4.47;;
64029;SDS011;50277;52.064;4.492;2022-11-06T05:24:32;13.80;;;4.85;;
64029;SDS011;50277;52.064;4.492;2022-11-06T05:26:57;11.00;;;4.88;;
64029;SDS011;50277;52.064;4.492;2022-11-06T05:29:23;15.02;;;4.80;;
64029;SDS011;50277;52.064;4.492;2022-11-06T05:31:48;10.40;;;4.55;;
64029;SDS011;50277;52.064;4.492;2022-11-06T05:34:13;11.10;;;4.97;;
64029;SDS011;50277;52.064;4.492;2022-11-06T05:36:38;9.50;;;3.97;;
64029;SDS011;50277;52.064;4.492;2022-11-06T05:39:04;9.88;;;4.03;;
64029;SDS011;50277;52.064;4.492;2022-11-06T05:41:29;10.40;;;3.80;;
64029;SDS011;50277;52.064;4.492;2022-11-06T05:43:55;11.20;;;4.32;;
64029;SDS011;50277;52.064;4.492;2022-11-06T05:46:20;7.82;;;4.38;;
64029;SDS011;50277;52.064;4.492;2022-11-06T05:48:45;10.70;;;4.43;;
64029;SDS011;50277;52.064;4.492;2022-11-06T05:51:11;7.35;;;3.85;;
64029;SDS011;50277;52.064;4.492;2022-11-06T05:53:36;7.90;;;4.22;;
64029;SDS011;50277;52.064;4.492;2022-11-06T05:56:02;11.50;;;5.05;;
64029;SDS011;50277;52.064;4.492;2022-11-06T05:58:29;8.60;;;3.60;;
64029;SDS011;50277;52.064;4.492;2022-11-06T06:00:54;8.40;;;5.13;;
64029;SDS011;50277;52.064;4.492;2022-11-06T06:03:20;8.45;;;3.38;;
64029;SDS011;50277;52.064;4.492;2022-11-06T06:05:46;10.60;;;3.70;;
64029;SDS011;50277;52.064;4.492;2022-11-06T06:08:11;8.65;;;3.85;;
64029;SDS011;50277;52.064;4.492;2022-11-06T06:10:43;10.75;;;4.05;;
64029;SDS011;50277;52.064;4.492;2022-11-06T06:13:10;10.85;;;4.00;;
64029;SDS011;50277;52.064;4.492;2022-11-06T06:15:38;9.45;;;4.53;;
64029;SDS011;50277;52.064;4.492;2022-11-06T06:18:05;11.15;;;4.40;;
64029;SDS011;50277;52.064;4.492;2022-11-06T06:20:31;7.68;;;3.63;;
64029;SDS011;50277;52.064;4.492;2022-11-06T06:22:57;7.22;;;3.28;;
64029;SDS011;50277;52.064;4.492;2022-11-06T06:25:23;8.65;;;3.72;;
64029;SDS011;50277;52.064;4.492;2022-11-06T06:27:49;11.88;;;3.70;;
64029;SDS011;50277;52.064;4.492;2022-11-06T06:30:15;11.25;;;3.40;;
64029;SDS011;50277;52.064;4.492;2022-11-06T06:32:40;8.80;;;3.60;;
64029;SDS011;50277;52.064;4.492;2022-11-06T06:35:06;10.98;;;3.80;;
64029;SDS011;50277;52.064;4.492;2022-11-06T06:37:31;7.20;;;3.22;;
64029;SDS011;50277;52.064;4.492;2022-11-06T06:39:57;6.63;;;3.22;;
64029;SDS011;50277;52.064;4.492;2022-11-06T06:42:22;6.93;;;3.10;;
64029;SDS011;50277;52.064;4.492;2022-11-06T06:44:47;11.80;;;4.93;;
64029;SDS011;50277;52.064;4.492;2022-11-06T06:47:13;10.63;;;3.17;;
64029;SDS011;50277;52.064;4.492;2022-11-06T06:49:41;7.20;;;3.13;;
64029;SDS011;50277;52.064;4.492;2022-11-06T06:52:07;12.68;;;3.20;;
64029;SDS011;50277;52.064;4.492;2022-11-06T06:54:33;14.20;;;3.50;;
64029;SDS011;50277;52.064;4.492;2022-11-06T06:56:58;10.23;;;3.47;;
64029;SDS011;50277;52.064;4.492;2022-11-06T06:59:24;8.90;;;2.92;;
64029;SDS011;50277;52.064;4.492;2022-11-06T07:01:49;9.35;;;3.13;;
64029;SDS011;50277;52.064;4.492;2022-11-06T07:04:14;9.15;;;2.47;;
64029;SDS011;50277;52.064;4.492;2022-11-06T07:06:40;6.25;;;2.30;;
64029;SDS011;50277;52.064;4.492;2022-11-06T07:09:05;8.82;;;2.55;;
64029;SDS011;50277;52.064;4.492;2022-11-06T07:11:31;8.82;;;2.70;;
64029;SDS011;50277;52.064;4.492;2022-11-06T07:13:56;10.32;;;3.33;;
64029;SDS011;50277;52.064;4.492;2022-11-06T07:16:21;9.52;;;2.78;;
64029;SDS011;50277;52.064;4.492;2022-11-06T07:18:47;9.85;;;2.88;;
64029;SDS011;50277;52.064;4.492;2022-11-06T07:21:12;10.38;;;3.05;;
64029;SDS011;50277;52.064;4.492;2022-11-06T07:23:38;9.40;;;2.42;;
64029;SDS011;50277;52.064;4.492;2022-11-06T07:26:04;13.30;;;2.95;;
64029;SDS011;50277;52.064;4.492;2022-11-06T07:28:30;9.77;;;2.85;;
64029;SDS011;50277;52.064;4.492;2022-11-06T07:30:59;8.50;;;2.65;;
64029;SDS011;50277;52.064;4.492;2022-11-06T07:33:25;10.30;;;2.75;;
64029;SDS011;50277;52.064;4.492;2022-11-06T07:35:51;10.15;;;2.72;;
64029;SDS011;50277;52.064;4.492;2022-11-06T07:38:16;8.63;;;2.47;;
64029;SDS011;50277;52.064;4.492;2022-11-06T07:40:41;5.97;;;2.50;;
64029;SDS011;50277;52.064;4.492;2022-11-06T07:43:07;6.75;;;2.25;;
64029;SDS011;50277;52.064;4.492;2022-11-06T07:45:34;11.15;;;2.85;;
64029;SDS011;50277;52.064;4.492;2022-11-06T07:47:59;6.30;;;2.80;;
64029;SDS011;50277;52.064;4.492;2022-11-06T07:50:25;6.35;;;2.50;;
64029;SDS011;50277;52.064;4.492;2022-11-06T07:52:51;8.38;;;2.47;;
64029;SDS011;50277;52.064;4.492;2022-11-06T07:55:16;4.47;;;2.22;;
64029;SDS011;50277;52.064;4.492;2022-11-06T07:57:42;5.70;;;2.25;;
64029;SDS011;50277;52.064;4.492;2022-11-06T08:00:07;7.57;;;2.38;;
64029;SDS011;50277;52.064;4.492;2022-11-06T08:02:33;13.15;;;2.70;;
64029;SDS011;50277;52.064;4.492;2022-11-06T08:04:58;10.27;;;2.60;;
64029;SDS011;50277;52.064;4.492;2022-11-06T08:07:24;10.80;;;2.42;;
64029;SDS011;50277;52.064;4.492;2022-11-06T08:09:49;7.80;;;2.05;;
64029;SDS011;50277;52.064;4.492;2022-11-06T08:12:15;10.63;;;2.45;;
64029;SDS011;50277;52.064;4.492;2022-11-06T08:14:40;8.68;;;2.22;;
64029;SDS011;50277;52.064;4.492;2022-11-06T08:17:05;12.43;;;2.47;;
64029;SDS011;50277;52.064;4.492;2022-11-06T08:19:31;8.63;;;2.20;;
64029;SDS011;50277;52.064;4.492;2022-11-06T08:21:56;4.22;;;1.92;;
64029;SDS011;50277;52.064;4.492;2022-11-06T08:24:21;4.82;;;1.92;;
64029;SDS011;50277;52.064;4.492;2022-11-06T08:26:47;7.93;;;2.22;;
64029;SDS011;50277;52.064;4.492;2022-11-06T08:29:12;7.00;;;2.42;;
64029;SDS011;50277;52.064;4.492;2022-11-06T08:31:38;8.20;;;2.03;;
64029;SDS011;50277;52.064;4.492;2022-11-06T08:34:03;7.57;;;2.22;;
64029;SDS011;50277;52.064;4.492;2022-11-06T08:36:29;9.95;;;2.25;;
64029;SDS011;50277;52.064;4.492;2022-11-06T08:38:54;7.45;;;2.38;;
64029;SDS011;50277;52.064;4.492;2022-11-06T08:41:20;5.53;;;2.20;;
64029;SDS011;50277;52.064;4.492;2022-11-06T08:43:49;6.65;;;2.05;;
64029;SDS011;50277;52.064;4.492;2022-11-06T08:46:15;10.80;;;2.17;;
64029;SDS011;50277;52.064;4.492;2022-11-06T08:48:40;8.32;;;3.00;;
64029;SDS011;50277;52.064;4.492;2022-11-06T08:51:06;10.25;;;2.55;;
64029;SDS011;50277;52.064;4.492;2022-11-06T08:53:31;7.18;;;1.98;;
64029;SDS011;50277;52.064;4.492;2022-11-06T08:55:57;8.30;;;2.33;;
64029;SDS011;50277;52.064;4.492;2022-11-06T08:58:22;4.30;;;1.92;;
64029;SDS011;50277;52.064;4.492;2022-11-06T09:00:48;9.45;;;2.30;;
64029;SDS011;50277;52.064;4.492;2022-11-06T09:03:14;7.82;;;2.50;;
64029;SDS011;50277;52.064;4.492;2022-11-06T09:05:41;9.27;;;2.47;;
64029;SDS011;50277;52.064;4.492;2022-11-06T09:08:08;10.05;;;2.20;;
64029;SDS011;50277;52.064;4.492;2022-11-06T09:10:34;6.93;;;2.53;;
64029;SDS011;50277;52.064;4.492;2022-11-06T09:13:01;6.45;;;1.90;;
64029;SDS011;50277;52.064;4.492;2022-11-06T09:15:26;8.27;;;2.72;;
64029;SDS011;50277;52.064;4.492;2022-11-06T09:17:51;8.95;;;2.40;;
64029;SDS011;50277;52.064;4.492;2022-11-06T09:20:17;7.82;;;2.33;;
64029;SDS011;50277;52.064;4.492;2022-11-06T09:22:44;8.82;;;2.05;;
64029;SDS011;50277;52.064;4.492;2022-11-06T09:25:10;7.40;;;2.20;;
64029;SDS011;50277;52.064;4.492;2022-11-06T09:27:45;5.40;;;2.40;;
64029;SDS011;50277;52.064;4.492;2022-11-06T09:30:13;7.63;;;2.67;;
64029;SDS011;50277;52.064;4.492;2022-11-06T09:32:46;9.50;;;2.58;;
64029;SDS011;50277;52.064;4.492;2022-11-06T09:35:12;7.72;;;2.47;;
64029;SDS011;50277;52.064;4.492;2022-11-06T09:37:38;7.70;;;2.65;;
64029;SDS011;50277;52.064;4.492;2022-11-06T09:40:04;13.68;;;2.55;;
64029;SDS011;50277;52.064;4.492;2022-11-06T09:42:40;4.93;;;2.00;;
64029;SDS011;50277;52.064;4.492;2022-11-06T09:45:22;13.45;;;2.83;;
64029;SDS011;50277;52.064;4.492;2022-11-06T09:47:50;7.67;;;2.67;;
64029;SDS011;50277;52.064;4.492;2022-11-06T09:50:21;7.28;;;2.90;;
64029;SDS011;50277;52.064;4.492;2022-11-06T09:52:50;6.40;;;2.10;;
64029;SDS011;50277;52.064;4.492;2022-11-06T09:55:19;7.35;;;2.63;;
64029;SDS011;50277;52.064;4.492;2022-11-06T10:00:25;4.82;;;2.28;;
64029;SDS011;50277;52.064;4.492;2022-11-06T10:02:51;9.35;;;2.40;;
64029;SDS011;50277;52.064;4.492;2022-11-06T10:05:24;7.10;;;2.70;;
64029;SDS011;50277;52.064;4.492;2022-11-06T10:07:54;8.93;;;2.58;;
64029;SDS011;50277;52.064;4.492;2022-11-06T10:10:23;10.45;;;2.65;;
64029;SDS011;50277;52.064;4.492;2022-11-06T10:15:37;6.90;;;2.55;;
64029;SDS011;50277;52.064;4.492;2022-11-06T10:18:28;11.65;;;2.45;;
64029;SDS011;50277;52.064;4.492;2022-11-06T10:26:40;9.77;;;2.63;;
64029;SDS011;50277;52.064;4.492;2022-11-06T10:34:57;10.70;;;2.75;;
64029;SDS011;50277;52.064;4.492;2022-11-06T10:37:29;9.90;;;3.00;;
64029;SDS011;50277;52.064;4.492;2022-11-06T10:42:23;8.80;;;2.27;;
64029;SDS011;50277;52.064;4.492;2022-11-06T10:44:59;11.18;;;2.35;;
64029;SDS011;50277;52.064;4.492;2022-11-06T10:47:29;5.72;;;2.75;;
64029;SDS011;50277;52.064;4.492;2022-11-06T10:57:39;9.00;;;2.92;;
64029;SDS011;50277;52.064;4.492;2022-11-06T11:00:13;11.90;;;2.67;;
64029;SDS011;50277;52.064;4.492;2022-11-06T11:02:41;7.22;;;2.40;;
64029;SDS011;50277;52.064;4.492;2022-11-06T11:05:10;11.57;;;2.53;;
64029;SDS011;50277;52.064;4.492;2022-11-06T11:07:40;11.48;;;2.47;;
64029;SDS011;50277;52.064;4.492;2022-11-06T11:12:51;6.60;;;1.92;;
64029;SDS011;50277;52.064;4.492;2022-11-06T11:15:18;5.90;;;1.80;;
64029;SDS011;50277;52.064;4.492;2022-11-06T11:18:05;8.52;;;2.10;;
64029;SDS011;50277;52.064;4.492;2022-11-06T11:20:33;9.45;;;2.28;;
64029;SDS011;50277;52.064;4.492;2022-11-06T11:23:03;5.90;;;2.03;;
64029;SDS011;50277;52.064;4.492;2022-11-06T11:25:53;5.53;;;1.95;;
64029;SDS011;50277;52.064;4.492;2022-11-06T11:30:59;7.38;;;2.30;;
64029;SDS011;50277;52.064;4.492;2022-11-06T11:33:30;8.18;;;2.50;;
64029;SDS011;50277;52.064;4.492;2022-11-06T11:35:56;9.65;;;2.13;;
64029;SDS011;50277;52.064;4.492;2022-11-06T11:38:21;5.55;;;1.80;;
64029;SDS011;50277;52.064;4.492;2022-11-06T11:40:48;7.38;;;2.22;;
64029;SDS011;50277;52.064;4.492;2022-11-06T11:43:24;8.65;;;2.47;;
64029;SDS011;50277;52.064;4.492;2022-11-06T11:48:39;6.88;;;2.40;;
64029;SDS011;50277;52.064;4.492;2022-11-06T11:51:42;5.97;;;2.00;;
64029;SDS011;50277;52.064;4.492;2022-11-06T11:54:21;4.20;;;1.60;;
64029;SDS011;50277;52.064;4.492;2022-11-06T11:59:27;3.47;;;1.65;;
64029;SDS011;50277;52.064;4.492;2022-11-06T12:01:55;11.80;;;1.95;;
64029;SDS011;50277;52.064;4.492;2022-11-06T12:04:34;9.40;;;2.20;;
64029;SDS011;50277;52.064;4.492;2022-11-06T12:07:04;10.20;;;2.42;;
64029;SDS011;50277;52.064;4.492;2022-11-06T12:11:58;5.68;;;2.67;;
64029;SDS011;50277;52.064;4.492;2022-11-06T12:17:07;5.93;;;2.35;;
64029;SDS011;50277;52.064;4.492;2022-11-06T12:19:36;8.20;;;2.60;;
64029;SDS011;50277;52.064;4.492;2022-11-06T12:22:10;8.07;;;2.13;;
64029;SDS011;50277;52.064;4.492;2022-11-06T12:24:47;7.90;;;2.25;;
64029;SDS011;50277;52.064;4.492;2022-11-06T12:27:21;4.03;;;1.95;;
64029;SDS011;50277;52.064;4.492;2022-11-06T12:29:50;6.97;;;2.63;;
64029;SDS011;50277;52.064;4.492;2022-11-06T12:35:19;5.45;;;1.75;;
64029;SDS011;50277;52.064;4.492;2022-11-06T12:40:20;5.95;;;2.55;;
64029;SDS011;50277;52.064;4.492;2022-11-06T12:43:01;6.38;;;2.30;;
64029;SDS011;50277;52.064;4.492;2022-11-06T12:51:31;7.78;;;2.17;;
64029;SDS011;50277;52.064;4.492;2022-11-06T12:56:58;7.10;;;2.25;;
64029;SDS011;50277;52.064;4.492;2022-11-06T13:05:05;6.72;;;2.15;;
64029;SDS011;50277;52.064;4.492;2022-11-06T13:10:05;6.90;;;2.55;;
64029;SDS011;50277;52.064;4.492;2022-11-06T13:15:42;7.90;;;2.30;;
64029;SDS011;50277;52.064;4.492;2022-11-06T13:18:23;4.50;;;1.95;;
64029;SDS011;50277;52.064;4.492;2022-11-06T13:23:50;4.67;;;2.13;;
64029;SDS011;50277;52.064;4.492;2022-11-06T13:26:53;9.98;;;2.95;;
64029;SDS011;50277;52.064;4.492;2022-11-06T13:29:25;4.93;;;2.00;;
64029;SDS011;50277;52.064;4.492;2022-11-06T13:31:52;6.93;;;2.45;;
64029;SDS011;50277;52.064;4.492;2022-11-06T13:34:23;9.50;;;2.20;;
64029;SDS011;50277;52.064;4.492;2022-11-06T13:36:50;7.47;;;2.30;;
64029;SDS011;50277;52.064;4.492;2022-11-06T13:41:45;9.55;;;2.33;;
64029;SDS011;50277;52.064;4.492;2022-11-06T13:44:10;12.40;;;2.30;;
64029;SDS011;50277;52.064;4.492;2022-11-06T14:06:20;6.78;;;2.47;;
64029;SDS011;50277;52.064;4.492;2022-11-06T14:08:54;5.40;;;1.98;;
64029;SDS011;50277;52.064;4.492;2022-11-06T14:11:27;5.07;;;2.20;;
64029;SDS011;50277;52.064;4.492;2022-11-06T14:13:55;5.07;;;2.30;;
64029;SDS011;50277;52.064;4.492;2022-11-06T14:16:38;5.82;;;2.03;;
64029;SDS011;50277;52.064;4.492;2022-11-06T14:26:43;7.03;;;1.92;;
64029;SDS011;50277;52.064;4.492;2022-11-06T14:31:56;4.82;;;2.17;;
64029;SDS011;50277;52.064;4.492;2022-11-06T14:34:27;4.13;;;1.77;;
64029;SDS011;50277;52.064;4.492;2022-11-06T14:36:56;6.47;;;2.13;;
64029;SDS011;50277;52.064;4.492;2022-11-06T14:42:15;4.75;;;1.90;;
64029;SDS011;50277;52.064;4.492;2022-11-06T14:44:44;3.60;;;1.77;;
64029;SDS011;50277;52.064;4.492;2022-11-06T14:47:24;2.88;;;1.33;;
64029;SDS011;50277;52.064;4.492;2022-11-06T14:50:03;4.07;;;1.70;;
64029;SDS011;50277;52.064;4.492;2022-11-06T14:52:44;5.25;;;1.85;;
64029;SDS011;50277;52.064;4.492;2022-11-06T14:57:47;4.72;;;2.03;;
64029;SDS011;50277;52.064;4.492;2022-11-06T15:00:31;3.27;;;1.90;;
64029;SDS011;50277;52.064;4.492;2022-11-06T15:02:57;7.53;;;1.90;;
64029;SDS011;50277;52.064;4.492;2022-11-06T15:05:23;8.00;;;2.05;;
64029;SDS011;50277;52.064;4.492;2022-11-06T15:07:51;4.65;;;2.00;;
64029;SDS011;50277;52.064;4.492;2022-11-06T15:15:42;6.13;;;2.10;;
64029;SDS011;50277;52.064;4.492;2022-11-06T15:18:09;5.72;;;1.90;;
64029;SDS011;50277;52.064;4.492;2022-11-06T15:20:36;3.78;;;1.88;;
64029;SDS011;50277;52.064;4.492;2022-11-06T15:23:23;3.58;;;1.60;;
64029;SDS011;50277;52.064;4.492;2022-11-06T15:26:19;5.22;;;1.58;;
64029;SDS011;50277;52.064;4.492;2022-11-06T15:29:01;2.50;;;1.90;;
64029;SDS011;50277;52.064;4.492;2022-11-06T15:31:39;5.28;;;1.90;;
64029;SDS011;50277;52.064;4.492;2022-11-06T15:34:07;3.60;;;1.70;;
64029;SDS011;50277;52.064;4.492;2022-11-06T15:36:40;7.03;;;2.22;;
64029;SDS011;50277;52.064;4.492;2022-11-06T15:39:20;7.80;;;2.00;;
64029;SDS011;50277;52.064;4.492;2022-11-06T15:44:39;3.03;;;1.90;;
64029;SDS011;50277;52.064;4.492;2022-11-06T15:47:05;4.68;;;1.83;;
64029;SDS011;50277;52.064;4.492;2022-11-06T15:49:44;4.13;;;2.03;;
64029;SDS011;50277;52.064;4.492;2022-11-06T15:52:14;4.32;;;1.80;;
64029;SDS011;50277;52.064;4.492;2022-11-06T15:54:41;5.18;;;2.10;;
64029;SDS011;50277;52.064;4.492;2022-11-06T15:57:12;6.00;;;2.38;;
64029;SDS011;50277;52.064;4.492;2022-11-06T15:59:40;7.15;;;2.70;;
64029;SDS011;50277;52.064;4.492;2022-11-06T16:02:11;5.72;;;2.55;;
64029;SDS011;50277;52.064;4.492;2022-11-06T16:04:42;6.28;;;2.25;;
64029;SDS011;50277;52.064;4.492;2022-11-06T16:07:08;9.10;;;2.22;;
64029;SDS011;50277;52.064;4.492;2022-11-06T16:09:34;7.80;;;2.95;;
64029;SDS011;50277;52.064;4.492;2022-11-06T16:11:59;4.97;;;2.00;;
64029;SDS011;50277;52.064;4.492;2022-11-06T16:14:25;4.53;;;2.05;;
64029;SDS011;50277;52.064;4.492;2022-11-06T16:16:51;7.25;;;2.13;;
64029;SDS011;50277;52.064;4.492;2022-11-06T16:19:20;4.72;;;1.92;;
64029;SDS011;50277;52.064;4.492;2022-11-06T16:22:11;5.55;;;2.17;;
64029;SDS011;50277;52.064;4.492;2022-11-06T16:24:39;5.15;;;2.08;;
64029;SDS011;50277;52.064;4.492;2022-11-06T16:27:09;5.32;;;1.90;;
64029;SDS011;50277;52.064;4.492;2022-11-06T16:29:35;2.90;;;1.83;;
64029;SDS011;50277;52.064;4.492;2022-11-06T16:32:02;4.05;;;2.25;;
64029;SDS011;50277;52.064;4.492;2022-11-06T16:44:47;9.68;;;2.25;;
64029;SDS011;50277;52.064;4.492;2022-11-06T16:47:20;4.18;;;2.42;;
64029;SDS011;50277;52.064;4.492;2022-11-06T16:49:47;3.50;;;2.30;;
64029;SDS011;50277;52.064;4.492;2022-11-06T16:57:50;3.38;;;2.38;;
64029;SDS011;50277;52.064;4.492;2022-11-06T17:05:24;4.13;;;2.63;;
64029;SDS011;50277;52.064;4.492;2022-11-06T17:10:40;4.60;;;2.95;;
64029;SDS011;50277;52.064;4.492;2022-11-06T17:15:47;3.15;;;2.90;;
64029;SDS011;50277;52.064;4.492;2022-11-06T17:18:17;9.80;;;3.60;;
64029;SDS011;50277;52.064;4.492;2022-11-06T17:20:49;7.07;;;3.42;;
64029;SDS011;50277;52.064;4.492;2022-11-06T17:23:16;6.03;;;3.25;;
64029;SDS011;50277;52.064;4.492;2022-11-06T17:25:41;7.68;;;3.40;;
64029;SDS011;50277;52.064;4.492;2022-11-06T17:28:08;9.00;;;3.13;;
64029;SDS011;50277;52.064;4.492;2022-11-06T17:30:34;5.90;;;3.38;;
64029;SDS011;50277;52.064;4.492;2022-11-06T17:32:59;6.60;;;3.05;;
64029;SDS011;50277;52.064;4.492;2022-11-06T17:35:24;8.30;;;3.60;;
64029;SDS011;50277;52.064;4.492;2022-11-06T17:37:50;9.15;;;3.75;;
64029;SDS011;50277;52.064;4.492;2022-11-06T17:40:15;7.40;;;3.35;;
64029;SDS011;50277;52.064;4.492;2022-11-06T17:42:40;4.10;;;3.38;;
64029;SDS011;50277;52.064;4.492;2022-11-06T17:45:06;7.70;;;4.00;;
64029;SDS011;50277;52.064;4.492;2022-11-06T17:47:31;5.32;;;3.40;;
64029;SDS011;50277;52.064;4.492;2022-11-06T17:49:57;6.35;;;3.85;;
64029;SDS011;50277;52.064;4.492;2022-11-06T17:52:22;8.98;;;3.38;;
64029;SDS011;50277;52.064;4.492;2022-11-06T17:54:48;11.15;;;3.55;;
64029;SDS011;50277;52.064;4.492;2022-11-06T17:57:13;5.38;;;3.53;;
64029;SDS011;50277;52.064;4.492;2022-11-06T17:59:38;6.63;;;3.60;;
64029;SDS011;50277;52.064;4.492;2022-11-06T18:02:04;7.13;;;3.88;;
64029;SDS011;50277;52.064;4.492;2022-11-06T18:04:31;6.32;;;4.22;;
64029;SDS011;50277;52.064;4.492;2022-11-06T18:06:58;6.57;;;4.32;;
64029;SDS011;50277;52.064;4.492;2022-11-06T18:09:23;8.07;;;4.05;;
64029;SDS011;50277;52.064;4.492;2022-11-06T18:11:49;9.00;;;4.15;;
64029;SDS011;50277;52.064;4.492;2022-11-06T18:14:16;5.32;;;4.35;;
64029;SDS011;50277;52.064;4.492;2022-11-06T18:16:41;6.72;;;4.00;;
64029;SDS011;50277;52.064;4.492;2022-11-06T18:19:08;6.75;;;4.35;;